createdAt,value
2016-08-02T00:00:42.253Z,0
2016-08-02T00:03:56.357Z,0
2016-08-02T00:07:10.320Z,0
2016-08-02T00:10:24.291Z,0
2016-08-02T00:13:44.355Z,0
2016-08-02T00:16:47.640Z,0
2016-08-02T00:20:01.392Z,0
2016-08-02T00:23:15.134Z,0
2016-08-02T00:26:29.308Z,0
2016-08-02T00:29:43.128Z,0
2016-08-02T00:32:57.119Z,0
2016-08-02T00:36:10.984Z,0
2016-08-02T00:39:24.908Z,0
2016-08-02T00:42:44.934Z,0
2016-08-02T00:45:48.097Z,0
2016-08-02T00:49:01.812Z,0
2016-08-02T00:52:15.874Z,0
2016-08-02T00:55:29.617Z,0
2016-08-02T00:58:43.602Z,0
2016-08-02T01:01:57.422Z,0
2016-08-02T01:05:11.475Z,0
2016-08-02T01:08:25.397Z,0
2016-08-02T01:11:45.263Z,0
2016-08-02T01:14:48.164Z,0
2016-08-02T01:18:01.875Z,0
2016-08-02T01:21:15.648Z,0
2016-08-02T01:24:29.477Z,0
2016-08-02T01:27:43.598Z,0
2016-08-02T01:30:57.392Z,0
2016-08-02T01:34:11.015Z,0
2016-08-02T01:37:24.752Z,0
2016-08-02T01:40:44.671Z,0
2016-08-02T01:43:47.525Z,0
2016-08-02T01:47:01.326Z,0
2016-08-02T01:50:15.014Z,0
2016-08-02T01:53:28.851Z,0
2016-08-02T01:56:42.701Z,0
2016-08-02T01:59:56.468Z,0
2016-08-02T02:03:10.135Z,0
2016-08-02T02:06:23.916Z,0
2016-08-02T02:09:43.603Z,0
2016-08-02T02:12:46.534Z,0
2016-08-02T02:16:00.331Z,0
2016-08-02T02:19:14.239Z,0
2016-08-02T02:22:28.223Z,0
2016-08-02T02:25:42.266Z,0
2016-08-02T02:28:55.998Z,0
2016-08-02T02:32:09.878Z,0
2016-08-02T02:35:23.664Z,0
2016-08-02T02:38:43.649Z,0
2016-08-02T02:41:46.614Z,0
2016-08-02T02:45:00.118Z,0
2016-08-02T02:48:14.057Z,0
2016-08-02T02:51:27.294Z,1
2016-08-02T02:54:46.613Z,1
2016-08-02T02:57:49.902Z,2
2016-08-02T03:01:03.482Z,3
2016-08-02T03:04:17.111Z,4
2016-08-02T03:07:30.833Z,6
2016-08-02T03:10:44.632Z,10
2016-08-02T03:13:58.590Z,14
2016-08-02T03:17:12.338Z,20
2016-08-02T03:20:26.125Z,29
2016-08-02T03:23:45.879Z,39
2016-08-02T03:26:48.894Z,51
2016-08-02T03:30:02.385Z,65
2016-08-02T03:33:16.344Z,79
2016-08-02T03:36:32.234Z,95
2016-08-02T03:39:43.572Z,113
2016-08-02T03:42:57.183Z,135
2016-08-02T03:46:11.104Z,160
2016-08-02T03:49:24.907Z,190
2016-08-02T03:52:44.827Z,218
2016-08-02T03:55:47.759Z,245
2016-08-02T03:59:01.540Z,297
2016-08-02T04:02:15.440Z,335
2016-08-02T04:05:29.306Z,354
2016-08-02T04:08:42.941Z,389
2016-08-02T04:11:56.810Z,445
2016-08-02T04:15:08.555Z,478
2016-08-02T04:18:22.242Z,520
2016-08-02T04:21:41.861Z,578
2016-08-02T04:24:44.969Z,607
2016-08-02T04:27:58.813Z,644
2016-08-02T04:31:09.911Z,704
2016-08-02T04:34:23.792Z,659
2016-08-02T04:37:44.433Z,652
2016-08-02T04:40:46.505Z,730
2016-08-02T04:44:00.281Z,775
2016-08-02T04:47:14.163Z,821
2016-08-02T04:50:27.999Z,931
2016-08-02T04:53:47.904Z,978
2016-08-02T04:56:51.050Z,1069
2016-08-02T05:00:04.983Z,1104
2016-08-02T05:03:18.795Z,1215
2016-08-02T05:06:38.432Z,1404
2016-08-02T05:09:47.582Z,1603
2016-08-02T05:12:50.748Z,1740
2016-08-02T05:16:04.383Z,1419
2016-08-02T05:19:18.295Z,1438
2016-08-02T05:22:32.180Z,1519
2016-08-02T05:25:46.060Z,1776
2016-08-02T05:29:00.284Z,1952
2016-08-02T05:32:13.897Z,2297
2016-08-02T05:35:27.859Z,2395
2016-08-02T05:38:48.089Z,1772
2016-08-02T05:41:51.548Z,1772
2016-08-02T05:45:05.451Z,1654
2016-08-02T05:48:19.322Z,1677
2016-08-02T05:51:40.483Z,2335
2016-08-02T05:54:42.845Z,2899
2016-08-02T05:57:57.009Z,3000
2016-08-02T06:01:11.277Z,2854
2016-08-02T06:04:25.533Z,2623
2016-08-02T06:07:45.745Z,3291
2016-08-02T06:10:49.218Z,4282
2016-08-02T06:14:03.549Z,3433
2016-08-02T06:17:17.736Z,2319
2016-08-02T06:20:31.643Z,1976
2016-08-02T06:23:45.481Z,1916
2016-08-02T06:26:59.587Z,2485
2016-08-02T06:30:13.698Z,2107
2016-08-02T06:33:27.830Z,2524
2016-08-02T06:36:42.126Z,2316
2016-08-02T06:39:56.158Z,3125
2016-08-02T06:43:10.394Z,3239
2016-08-02T06:46:24.505Z,2463
2016-08-02T06:49:44.636Z,2465
2016-08-02T06:52:47.938Z,1653
2016-08-02T06:56:02.106Z,1604
2016-08-02T06:59:15.931Z,2061
2016-08-02T07:02:29.927Z,1736
2016-08-02T07:05:43.167Z,1724
2016-08-02T07:08:57.281Z,1733
2016-08-02T07:12:11.400Z,1801
2016-08-02T07:15:25.367Z,1916
2016-08-02T07:18:45.607Z,1608
2016-08-02T07:21:48.927Z,1644
2016-08-02T07:25:02.262Z,1246
2016-08-02T07:28:16.324Z,1594
2016-08-02T07:31:30.312Z,1903
2016-08-02T07:34:44.423Z,1921
2016-08-02T07:37:58.527Z,1418
2016-08-02T07:41:11.764Z,1400
2016-08-02T07:44:25.845Z,1339
2016-08-02T07:47:45.877Z,1716
2016-08-02T07:50:48.914Z,1711
2016-08-02T07:54:02.798Z,1978
2016-08-02T07:57:13.404Z,1991
2016-08-02T08:00:27.370Z,1963
2016-08-02T08:03:47.477Z,2040
2016-08-02T08:06:51.000Z,2118
2016-08-02T08:10:04.976Z,1984
2016-08-02T08:13:16.545Z,1873
2016-08-02T08:16:30.745Z,1957
2016-08-02T08:19:44.660Z,1780
2016-08-02T08:22:58.792Z,1566
2016-08-02T08:26:13.019Z,1793
2016-08-02T08:29:26.930Z,1622
2016-08-02T08:32:47.216Z,1319
2016-08-02T08:35:50.557Z,1490
2016-08-02T08:39:04.695Z,1618
2016-08-02T08:42:18.918Z,1707
2016-08-02T08:45:38.970Z,1562
2016-08-02T08:48:48.197Z,2460
2016-08-02T08:51:51.525Z,3621
2016-08-02T08:58:20.045Z,2760
2016-08-02T09:01:31.906Z,3722
2016-08-02T09:04:45.740Z,3607
2016-08-02T09:07:59.884Z,2666
2016-08-02T09:11:14.069Z,4273
2016-08-02T09:14:28.266Z,2907
2016-08-02T09:17:42.461Z,3377
2016-08-02T09:20:56.681Z,2999
2016-08-02T09:24:10.619Z,2241
2016-08-02T09:27:24.944Z,2151
2016-08-02T09:30:44.864Z,2029
2016-08-02T09:33:48.071Z,2952
2016-08-02T09:37:01.707Z,2119
2016-08-02T09:43:29.393Z,2846
2016-08-02T09:46:43.237Z,2339
2016-08-02T09:49:56.975Z,1563
2016-08-02T09:53:10.733Z,975
2016-08-02T09:56:24.595Z,817
2016-08-02T09:59:44.463Z,929
2016-08-02T10:02:47.505Z,1210
2016-08-02T10:05:57.968Z,1101
2016-08-02T10:09:12.160Z,1197
2016-08-02T10:12:25.932Z,1197
2016-08-02T10:15:45.741Z,1051
2016-08-02T10:18:48.728Z,1136
2016-08-02T10:22:02.447Z,1332
2016-08-02T10:25:15.994Z,1235
2016-08-02T10:28:29.434Z,1394
2016-08-02T10:31:43.157Z,1688
2016-08-02T10:34:56.917Z,1612
2016-08-02T10:38:10.527Z,1375
2016-08-02T10:41:24.293Z,1461
2016-08-02T10:44:44.128Z,1962
2016-08-02T10:47:47.257Z,1791
2016-08-02T10:51:01.157Z,1758
2016-08-02T10:54:15.135Z,2372
2016-08-02T10:57:29.060Z,2225
2016-08-02T11:00:42.855Z,1848
2016-08-02T11:03:56.704Z,1612
2016-08-02T11:07:10.863Z,3987
2016-08-02T11:13:44.715Z,2192
2016-08-02T11:16:47.853Z,2733
2016-08-02T11:20:01.505Z,2748
2016-08-02T11:23:15.159Z,2689
2016-08-02T11:26:28.970Z,3376
2016-08-02T11:29:42.818Z,2168
2016-08-02T11:32:56.659Z,2336
2016-08-02T11:36:10.609Z,1767
2016-08-02T11:39:24.455Z,1769
2016-08-02T11:42:44.500Z,1738
2016-08-02T11:45:47.483Z,1352
2016-08-02T11:49:01.224Z,1509
2016-08-02T11:52:15.037Z,1450
2016-08-02T11:55:28.847Z,1262
2016-08-02T11:58:42.785Z,1261
2016-08-02T12:01:56.698Z,657
2016-08-02T12:05:10.589Z,570
2016-08-02T12:08:24.236Z,549
2016-08-02T12:11:43.781Z,1445
2016-08-02T12:14:46.663Z,1751
2016-08-02T12:17:59.115Z,1483
2016-08-02T12:21:10.588Z,1941
2016-08-02T12:24:24.552Z,1865
2016-08-02T12:27:44.482Z,1073
2016-08-02T12:30:47.369Z,1430
2016-08-02T12:34:01.232Z,1632
2016-08-02T12:37:15.041Z,1977
2016-08-02T12:40:28.690Z,1294
2016-08-02T12:43:45.894Z,1445
2016-08-02T12:46:48.884Z,1675
2016-08-02T12:50:02.759Z,2151
2016-08-02T12:53:16.626Z,1750
2016-08-02T12:56:30.461Z,1996
2016-08-02T12:59:44.147Z,2282
2016-08-02T13:02:57.497Z,2747
2016-08-02T13:06:13.558Z,3224
2016-08-02T13:09:25.239Z,2837
2016-08-02T13:12:45.065Z,2674
2016-08-02T13:15:48.128Z,3820
2016-08-02T13:19:02.041Z,3699
2016-08-02T13:22:15.196Z,3621
2016-08-02T13:25:28.943Z,3666
2016-08-02T13:28:48.387Z,3046
2016-08-02T13:31:51.337Z,3113
2016-08-02T13:35:05.008Z,3205
2016-08-02T13:38:18.820Z,3525
2016-08-02T13:41:29.965Z,3702
2016-08-02T13:44:43.591Z,3816
2016-08-02T13:47:57.373Z,3289
2016-08-02T13:51:11.267Z,3240
2016-08-02T13:54:24.873Z,3235
2016-08-02T13:57:44.852Z,2856
2016-08-02T14:00:47.997Z,2996
2016-08-02T14:04:02.102Z,2816
2016-08-02T14:07:15.913Z,3160
2016-08-02T14:10:29.809Z,2473
2016-08-02T14:13:43.833Z,2667
2016-08-02T14:16:57.915Z,2786
2016-08-02T14:20:12.159Z,2441
2016-08-02T14:23:25.933Z,2491
2016-08-02T14:26:45.524Z,2624
2016-08-02T14:29:48.625Z,2482
2016-08-02T14:33:00.967Z,2678
2016-08-02T14:36:14.973Z,2417
2016-08-02T14:39:28.666Z,2727
2016-08-02T14:42:47.824Z,2684
2016-08-02T14:45:50.912Z,2392
2016-08-02T14:49:04.432Z,2418
2016-08-02T14:52:18.212Z,2541
2016-08-02T14:55:32.138Z,2468
2016-08-02T14:58:45.672Z,2501
2016-08-02T15:01:59.733Z,2473
2016-08-02T15:05:13.586Z,2386
2016-08-02T15:08:27.332Z,2253
2016-08-02T15:11:46.887Z,2076
2016-08-02T15:14:50.237Z,2353
2016-08-02T15:18:03.925Z,2184
2016-08-02T15:21:17.521Z,1744
2016-08-02T15:24:31.228Z,1415
2016-08-02T15:27:45.199Z,1197
2016-08-02T15:30:58.993Z,1402
2016-08-02T15:34:11.957Z,1034
2016-08-02T15:37:25.906Z,881
2016-08-02T15:40:45.934Z,889
2016-08-02T15:43:48.982Z,625
2016-08-02T15:47:02.652Z,688
2016-08-02T15:50:18.473Z,767
2016-08-02T15:53:29.857Z,520
2016-08-02T15:56:43.649Z,442
2016-08-02T15:59:57.564Z,395
2016-08-02T16:03:11.296Z,468
2016-08-02T16:06:25.134Z,547
2016-08-02T16:09:45.029Z,446
2016-08-02T16:12:48.085Z,685
2016-08-02T16:16:02.114Z,680
2016-08-02T16:19:16.073Z,663
2016-08-02T16:22:29.612Z,721
2016-08-02T16:25:43.255Z,665
2016-08-02T16:28:56.941Z,619
2016-08-02T16:32:10.815Z,472
2016-08-02T16:35:24.597Z,328
2016-08-02T16:38:44.673Z,259
2016-08-02T16:41:47.797Z,199
2016-08-02T16:45:01.855Z,182
2016-08-02T16:48:15.646Z,142
2016-08-02T16:51:29.487Z,174
2016-08-02T16:54:43.168Z,216
2016-08-02T16:57:57.053Z,349
2016-08-02T17:01:10.791Z,397
2016-08-02T17:04:24.676Z,331
2016-08-02T17:07:44.623Z,293
2016-08-02T17:10:47.631Z,409
2016-08-02T17:14:01.450Z,707
2016-08-02T17:17:15.194Z,488
2016-08-02T17:20:28.525Z,583
2016-08-02T17:23:48.537Z,425
2016-08-02T17:26:51.688Z,542
2016-08-02T17:30:03.641Z,597
2016-08-02T17:33:17.134Z,558
2016-08-02T17:36:30.788Z,533
2016-08-02T17:39:49.015Z,491
2016-08-02T17:42:52.044Z,445
2016-08-02T17:46:05.723Z,406
2016-08-02T17:49:19.416Z,365
2016-08-02T17:52:38.743Z,306
2016-08-02T17:55:47.945Z,282
2016-08-02T17:58:50.770Z,242
2016-08-02T18:02:04.537Z,213
2016-08-02T18:05:18.368Z,208
2016-08-02T18:08:32.170Z,192
2016-08-02T18:11:45.555Z,163
2016-08-02T18:14:59.322Z,127
2016-08-02T18:18:12.731Z,102
2016-08-02T18:21:25.599Z,91
2016-08-02T18:24:45.189Z,85
2016-08-02T18:27:48.168Z,92
2016-08-02T18:31:01.751Z,68
2016-08-02T18:34:15.074Z,44
2016-08-02T18:37:28.561Z,45
2016-08-02T18:40:48.066Z,41
2016-08-02T18:43:50.792Z,37
2016-08-02T18:47:04.445Z,29
2016-08-02T18:50:18.104Z,29
2016-08-02T18:53:31.920Z,30
2016-08-02T18:56:45.116Z,27
2016-08-02T18:59:58.871Z,22
2016-08-02T19:03:08.846Z,18
2016-08-02T19:06:22.328Z,13
2016-08-02T19:09:41.798Z,9
2016-08-02T19:12:44.764Z,7
2016-08-02T19:15:58.516Z,4
2016-08-02T19:19:12.157Z,3
2016-08-02T19:22:25.974Z,1
2016-08-02T19:25:45.879Z,1
2016-08-02T19:28:48.787Z,1
2016-08-02T19:32:02.567Z,0
2016-08-02T19:35:15.976Z,1
2016-08-02T19:38:29.998Z,0
2016-08-02T19:41:43.762Z,0
2016-08-02T19:44:55.253Z,0
2016-08-02T19:48:09.096Z,0
2016-08-02T19:51:22.437Z,0
2016-08-02T19:54:42.344Z,0
2016-08-02T19:57:45.452Z,0
2016-08-02T20:00:58.775Z,0
2016-08-02T20:04:12.445Z,0
2016-08-02T20:07:26.338Z,0
2016-08-02T20:10:46.096Z,0
2016-08-02T20:13:49.155Z,0
2016-08-02T20:17:02.667Z,0
2016-08-02T20:20:15.830Z,0
2016-08-02T20:23:29.466Z,0
2016-08-02T20:26:43.126Z,0
2016-08-02T20:29:56.689Z,0
2016-08-02T20:33:10.392Z,0
2016-08-02T20:36:21.763Z,0
2016-08-02T20:39:41.497Z,0
2016-08-02T20:42:44.528Z,0
2016-08-02T20:45:58.380Z,0
2016-08-02T20:49:12.324Z,0
2016-08-02T20:52:25.651Z,0
2016-08-02T20:55:45.495Z,0
2016-08-02T20:58:48.510Z,0
2016-08-02T21:02:02.324Z,0
2016-08-02T21:05:16.218Z,0
2016-08-02T21:08:29.909Z,0
2016-08-02T21:11:43.904Z,0
2016-08-02T21:14:57.772Z,0
2016-08-02T21:18:11.111Z,0
2016-08-02T21:21:24.664Z,0
2016-08-02T21:24:44.383Z,0
2016-08-02T21:27:47.334Z,0
2016-08-02T21:31:01.034Z,0
2016-08-02T21:34:14.569Z,0
2016-08-02T21:37:28.092Z,0
2016-08-02T21:40:47.740Z,0
2016-08-02T21:43:50.647Z,0
2016-08-02T21:47:04.459Z,0
2016-08-02T21:50:18.421Z,0
2016-08-02T21:53:32.347Z,0
2016-08-02T21:56:46.250Z,0
2016-08-02T21:59:59.051Z,0
2016-08-02T22:03:12.771Z,0
2016-08-02T22:06:26.486Z,0
2016-08-02T22:09:46.213Z,0
2016-08-02T22:12:49.082Z,0
2016-08-02T22:16:02.627Z,0
2016-08-02T22:19:16.401Z,0
2016-08-02T22:22:30.212Z,0
2016-08-02T22:25:44.255Z,0
2016-08-02T22:28:57.738Z,0
2016-08-02T22:32:10.465Z,0
2016-08-02T22:35:23.727Z,0
2016-08-02T22:38:43.398Z,0
2016-08-02T22:41:46.412Z,0
2016-08-02T22:44:59.662Z,0
2016-08-02T22:48:14.152Z,0
2016-08-02T22:51:26.929Z,0
2016-08-02T22:54:46.790Z,0
2016-08-02T22:57:50.071Z,0
2016-08-02T23:01:02.929Z,0
2016-08-02T23:04:16.628Z,0
2016-08-02T23:07:30.363Z,0
2016-08-02T23:10:44.116Z,0
2016-08-02T23:13:57.746Z,0
2016-08-02T23:17:09.130Z,0
2016-08-02T23:20:22.667Z,0
2016-08-02T23:23:42.415Z,0
2016-08-02T23:26:45.294Z,0
2016-08-02T23:29:58.795Z,0
2016-08-02T23:33:12.373Z,0
2016-08-02T23:36:26.256Z,0
2016-08-02T23:39:43.419Z,0
2016-08-02T23:42:46.206Z,0
2016-08-02T23:45:59.849Z,0
2016-08-02T23:49:13.429Z,0
2016-08-02T23:52:27.172Z,0
2016-08-02T23:55:46.836Z,0
2016-08-02T23:58:49.686Z,0
